Time;durP1;ratioP1;P1;durP2;ratioP2;P2;SDS_P1;SDS_P2;PMS_P1;PMS_P2;Temp;Humidity;BMP_temperature;BMP_pressure;BME280_temperature;BME280_humidity;BME280_pressure;Samples;Min_cycle;Max_cycle;Signal;HPM_P1;HPM_P2
2022/06/26 00:01:58;;;;;;;;;;;;;;;19.12;62.70;101029.39;1721457;82;25721;-54
2022/06/26 00:04:25;;;;;;;;;;;;;;;19.14;62.59;101028.70;1714811;82;25863;-54
2022/06/26 00:06:52;;;;;;;;;;;;;;;19.18;62.41;101026.44;1727325;81;26155;-53
2022/06/26 00:09:18;;;;;;;;;;;;;;;19.18;62.08;101028.67;1717825;81;28372;-54
2022/06/26 00:11:44;;;;;;;;;;;;;;;19.17;62.02;101027.47;1730470;81;25914;-53
2022/06/26 00:14:11;;;;;;;;;;;;;;;19.15;62.16;101027.67;1723070;82;25736;-52
2022/06/26 00:16:37;;;;;;;;;;;;;;;19.15;61.92;101027.67;1717812;82;26144;-54
2022/06/26 00:19:04;;;;;;;;;;;;;;;19.11;61.84;101034.52;1726952;82;25776;-54
2022/06/26 00:21:31;;;;;;;;;;;;;;;19.10;61.95;101042.36;1721861;82;27644;-54
2022/06/26 00:23:58;;;;;;;;;;;;;;;19.06;62.21;101037.80;1727414;81;25697;-52
2022/06/26 00:26:24;;;;;;;;;;;;;;;19.02;63.07;101030.17;1722173;82;25836;-54
2022/06/26 00:28:52;;;;;;;;;;;;;;;18.91;62.77;101036.91;1724650;81;25934;-54
2022/06/26 00:31:19;;;;;;;;;;;;;;;18.84;63.67;101038.68;1715960;82;25837;-54
2022/06/26 00:33:46;;;;;;;;;;;;;;;18.76;64.45;101042.31;1718131;82;27587;-55
2022/06/26 00:36:12;;;;;;;;;;;;;;;18.67;65.04;101042.92;1715197;82;25812;-54
2022/06/26 00:38:39;;;;;;;;;;;;;;;18.61;64.67;101046.35;1713401;81;25745;-54
2022/06/26 00:41:06;;;;;;;;;;;;;;;18.56;64.39;101051.52;1724207;81;25844;-54
2022/06/26 00:43:32;;;;;;;;;;;;;;;18.52;64.49;101052.39;1725814;82;25938;-54
2022/06/26 00:45:59;;;;;;;;;;;;;;;18.51;64.27;101055.31;1714493;82;27484;-52
2022/06/26 00:48:26;;;;;;;;;;;;;;;18.52;64.24;101051.53;1687648;83;25911;-54
2022/06/26 00:50:53;;;;;;;;;;;;;;;18.57;64.01;101053.21;1688840;83;26248;-52
2022/06/26 00:53:20;;;;;;;;;;;;;;;18.60;64.03;101056.41;1689300;83;25797;-53
2022/06/26 00:55:46;;;;;;;;;;;;;;;18.66;63.95;101058.93;1703763;83;25762;-53
2022/06/26 00:58:15;;;;;;;;;;;;;;;18.68;63.52;101055.52;1698676;83;27444;-52
2022/06/26 01:00:42;;;;;;;;;;;;;;;18.67;63.44;101054.31;1699781;83;26415;-54
2022/06/26 01:03:09;;;;;;;;;;;;;;;18.68;63.35;101058.23;1699689;83;25477;-54
2022/06/26 01:05:35;;;;;;;;;;;;;;;18.70;63.44;101061.60;1708675;81;26682;-54
2022/06/26 01:08:03;;;;;;;;;;;;;;;18.70;63.36;101064.33;1704101;83;25887;-54
2022/06/26 01:10:30;;;;;;;;;;;;;;;18.73;63.12;101068.59;1696870;81;27644;-55
2022/06/26 01:12:57;;;;;;;;;;;;;;;18.74;63.10;101068.89;1701769;83;25688;-53
2022/06/26 01:15:23;;;;;;;;;;;;;;;18.73;62.83;101060.41;1695788;83;25906;-54
2022/06/26 01:17:51;;;;;;;;;;;;;;;18.73;62.87;101062.61;1701936;83;26161;-54
2022/06/26 01:20:18;;;;;;;;;;;;;;;18.69;62.94;101063.99;1691203;83;25469;-52
2022/06/26 01:22:45;;;;;;;;;;;;;;;18.60;63.07;101061.87;1697439;83;29655;-52
2022/06/26 01:25:12;;;;;;;;;;;;;;;18.54;63.07;101058.52;1663173;83;25800;-53
2022/06/26 01:27:43;;;;;;;;;;;;;;;18.51;63.08;101066.20;1643037;85;25802;-55
2022/06/26 01:30:11;;;;;;;;;;;;;;;18.47;63.11;101065.70;1699953;82;25786;-53
2022/06/26 01:32:37;;;;;;;;;;;;;;;18.44;63.05;101064.19;1695968;82;26031;-53
2022/06/26 01:35:07;;;;;;;;;;;;;;;18.45;63.54;101071.34;1690707;83;27506;-53
2022/06/26 01:37:35;;;;;;;;;;;;;;;18.39;63.29;101072.56;1696012;83;25803;-53
2022/06/26 01:40:01;;;;;;;;;;;;;;;18.28;63.26;101076.55;1707902;81;25692;-54
2022/06/26 01:42:28;;;;;;;;;;;;;;;18.22;63.39;101082.20;1729475;80;25810;-51
2022/06/26 01:44:55;;;;;;;;;;;;;;;18.24;63.48;101086.13;1731107;81;25732;-54
2022/06/26 01:47:22;;;;;;;;;;;;;;;18.26;63.90;101088.14;1705385;82;27559;-53
2022/06/26 01:49:49;;;;;;;;;;;;;;;18.26;63.81;101092.22;1700613;82;26431;-54
2022/06/26 01:52:16;;;;;;;;;;;;;;;18.20;64.24;101086.14;1696380;82;25463;-55
2022/06/26 01:54:44;;;;;;;;;;;;;;;18.14;64.21;101083.12;1695129;83;26566;-53
2022/06/26 01:57:10;;;;;;;;;;;;;;;18.14;64.09;101098.09;1697102;82;26471;-54
2022/06/26 01:59:37;;;;;;;;;;;;;;;18.14;63.97;101102.17;1700680;83;27473;-52
2022/06/26 02:02:05;;;;;;;;;;;;;;;18.14;64.29;101102.67;1703143;82;25903;-55
2022/06/26 02:04:32;;;;;;;;;;;;;;;18.13;64.22;101103.20;1670144;83;25706;-54
2022/06/26 02:06:58;;;;;;;;;;;;;;;18.13;64.02;101102.33;1699043;82;25982;-54
2022/06/26 02:15:08;;;;;;;;;;;;;;;17.90;64.76;101100.88;1697452;82;25700;-55
2022/06/26 02:17:34;;;;;;;;;;;;;;;17.85;64.64;101100.05;1701234;83;25808;-53
2022/06/26 02:20:05;;;;;;;;;;;;;;;17.86;64.45;101100.38;1705279;82;25779;-55
2022/06/26 02:22:33;;;;;;;;;;;;;;;17.81;64.36;101103.63;1698887;82;25485;-54
2022/06/26 02:25:00;;;;;;;;;;;;;;;17.76;64.57;101111.48;1701565;82;27544;-55
2022/06/26 02:27:27;;;;;;;;;;;;;;;17.72;64.89;101112.02;1699683;82;25816;-55
2022/06/26 02:29:54;;;;;;;;;;;;;;;17.71;64.90;101113.03;1692999;82;25693;-55
2022/06/26 02:32:22;;;;;;;;;;;;;;;17.71;65.46;101109.78;1697774;82;25900;-53
2022/06/26 02:34:49;;;;;;;;;;;;;;;17.63;65.47;101106.59;1701365;81;26552;-55
2022/06/26 02:37:15;;;;;;;;;;;;;;;17.58;65.58;101115.77;1690606;83;27529;-53
2022/06/26 02:39:44;;;;;;;;;;;;;;;17.61;65.63;101116.80;1692380;82;25863;-52
2022/06/26 02:42:10;;;;;;;;;;;;;;;17.62;65.60;101110.83;1748185;81;25838;-56
2022/06/26 02:44:38;;;;;;;;;;;;;;;17.63;65.60;101116.61;1745527;81;25807;-53
2022/06/26 02:47:06;;;;;;;;;;;;;;;17.63;65.59;101120.69;1732132;80;25710;-54
2022/06/26 02:49:33;;;;;;;;;;;;;;;17.64;65.62;101120.54;1709542;82;27571;-53
2022/06/26 02:52:01;;;;;;;;;;;;;;;17.70;65.98;101116.77;1707376;82;25443;-54
2022/06/26 02:54:28;;;;;;;;;;;;;;;17.65;66.01;101124.96;1708219;82;25704;-55
2022/06/26 02:56:55;;;;;;;;;;;;;;;17.67;66.41;101122.89;1708604;82;25811;-54
2022/06/26 02:59:21;;;;;;;;;;;;;;;17.65;66.41;101120.88;1716768;82;25685;-55
2022/06/26 03:01:48;;;;;;;;;;;;;;;17.65;66.34;101122.24;1695673;83;27549;-54
2022/06/26 03:04:25;;;;;;;;;;;;;;;17.67;66.21;101114.73;1710726;82;25732;-55
2022/06/26 03:06:52;;;;;;;;;;;;;;;17.70;66.07;101127.16;1725877;80;25740;-55
2022/06/26 03:09:18;;;;;;;;;;;;;;;17.71;66.04;101125.27;1730982;81;25811;-55
2022/06/26 03:11:45;;;;;;;;;;;;;;;17.70;66.70;101120.86;1736450;81;26020;-53
2022/06/26 03:14:12;;;;;;;;;;;;;;;17.67;66.33;101117.98;1728310;80;27533;-54
2022/06/26 03:16:38;;;;;;;;;;;;;;;17.68;66.39;101119.67;1727554;80;25684;-54
2022/06/26 03:19:05;;;;;;;;;;;;;;;17.65;66.42;101120.02;1734043;81;25912;-55
2022/06/26 03:21:32;;;;;;;;;;;;;;;17.63;66.36;101122.05;1731036;81;25884;-55
2022/06/26 03:24:02;;;;;;;;;;;;;;;17.60;66.55;101121.06;1736565;80;25742;-51
2022/06/26 03:26:30;;;;;;;;;;;;;;;17.65;66.68;101124.96;1732031;81;27480;-55
2022/06/26 03:28:58;;;;;;;;;;;;;;;17.75;66.63;101120.67;1726543;81;25939;-55
2022/06/26 03:31:24;;;;;;;;;;;;;;;17.84;66.93;101120.11;1727477;81;25784;-54
2022/06/26 03:33:51;;;;;;;;;;;;;;;17.89;66.93;101123.17;1725553;81;26524;-55
2022/06/26 03:36:20;;;;;;;;;;;;;;;17.91;67.11;101125.70;1727078;81;26508;-55
2022/06/26 03:38:47;;;;;;;;;;;;;;;17.88;66.89;101131.00;1731051;81;27480;-55
2022/06/26 03:41:14;;;;;;;;;;;;;;;17.89;66.70;101131.83;1749902;80;25450;-54
2022/06/26 03:43:41;;;;;;;;;;;;;;;17.96;66.77;101138.33;1746700;80;25878;-55
2022/06/26 03:46:08;;;;;;;;;;;;;;;18.02;66.67;101140.86;1739671;80;25781;-54
2022/06/26 03:48:35;;;;;;;;;;;;;;;18.08;66.52;101138.26;1707641;83;27215;-55
2022/06/26 03:51:03;;;;;;;;;;;;;;;18.11;67.68;101136.55;1708290;82;28195;-53
2022/06/26 03:53:33;;;;;;;;;;;;;;;18.10;68.12;101141.66;1696938;81;25960;-54
2022/06/26 03:55:59;;;;;;;;;;;;;;;18.10;67.80;101147.11;1696863;81;25763;-55
2022/06/26 03:58:26;;;;;;;;;;;;;;;18.13;68.37;101140.45;1714219;82;26590;-53
2022/06/26 04:00:53;;;;;;;;;;;;;;;18.13;68.86;101147.26;1708321;82;25920;-55
2022/06/26 04:03:21;;;;;;;;;;;;;;;18.13;68.97;101147.26;1706078;82;29650;-54
2022/06/26 04:05:48;;;;;;;;;;;;;;;18.13;68.59;101152.70;1715874;81;25723;-54
2022/06/26 04:08:15;;;;;;;;;;;;;;;18.12;68.34;101154.59;1712514;82;25818;-55
2022/06/26 04:10:44;;;;;;;;;;;;;;;18.14;68.69;101149.82;1728807;81;25818;-55
2022/06/26 04:13:15;;;;;;;;;;;;;;;18.17;68.62;101152.70;1706487;83;25621;-55
2022/06/26 04:15:43;;;;;;;;;;;;;;;18.23;68.89;101147.89;1726973;81;27496;-54
2022/06/26 04:18:10;;;;;;;;;;;;;;;18.26;68.65;101152.13;1713860;82;25870;-55
2022/06/26 04:20:38;;;;;;;;;;;;;;;18.32;68.46;101150.58;1710037;82;25487;-54
2022/06/26 04:23:10;;;;;;;;;;;;;;;18.38;68.50;101156.16;1718519;82;25945;-54
2022/06/26 04:25:39;;;;;;;;;;;;;;;18.43;68.64;101146.93;1712182;82;25742;-52
2022/06/26 04:28:07;;;;;;;;;;;;;;;18.47;69.05;101146.05;1718364;81;27453;-55
2022/06/26 04:30:35;;;;;;;;;;;;;;;18.50;68.89;101145.70;1715555;82;26577;-55
2022/06/26 04:33:02;;;;;;;;;;;;;;;18.56;68.76;101144.14;1711929;81;25680;-55
2022/06/26 04:35:31;;;;;;;;;;;;;;;18.60;68.72;101144.13;1714077;82;28065;-53
2022/06/26 04:37:58;;;;;;;;;;;;;;;18.64;68.26;101146.81;1688855;83;25829;-53
2022/06/26 04:40:25;;;;;;;;;;;;;;;18.69;68.26;101149.83;1725319;80;27471;-54
2022/06/26 04:42:52;;;;;;;;;;;;;;;18.77;68.35;101141.63;1754938;80;25417;-52
2022/06/26 04:45:21;;;;;;;;;;;;;;;18.85;67.95;101145.31;1754290;80;25803;-55
2022/06/26 04:47:48;;;;;;;;;;;;;;;18.89;67.43;101145.27;1731592;81;25769;-54
2022/06/26 04:50:17;;;;;;;;;;;;;;;18.89;67.32;101149.36;1708554;83;25772;-55
2022/06/26 04:52:47;;;;;;;;;;;;;;;18.92;67.13;101148.51;1711026;82;28639;-55
2022/06/26 04:55:15;;;;;;;;;;;;;;;18.98;66.95;101153.75;1687025;83;25740;-52
2022/06/26 04:57:43;;;;;;;;;;;;;;;19.08;66.92;101157.08;1686109;83;25464;-54
2022/06/26 05:00:14;;;;;;;;;;;;;;;19.17;66.76;101150.19;1695688;83;25930;-54
2022/06/26 05:02:51;;;;;;;;;;;;;;;19.25;66.55;101147.39;1697906;83;25743;-54
2022/06/26 05:05:20;;;;;;;;;;;;;;;19.32;66.29;101144.25;1666181;83;27410;-55
2022/06/26 05:07:48;;;;;;;;;;;;;;;19.34;66.12;101154.99;1678820;83;25953;-53
2022/06/26 05:10:15;;;;;;;;;;;;;;;19.39;65.82;101156.63;1685416;83;25736;-55
2022/06/26 05:12:52;;;;;;;;;;;;;;;19.48;65.64;101154.16;1690473;83;26011;-54
2022/06/26 05:15:38;;;;;;;;;;;;;;;19.57;65.39;101152.20;1685108;83;25787;-54
2022/06/26 05:18:06;;;;;;;;;;;;;;;19.69;65.36;101156.16;1685437;83;27472;-55
2022/06/26 05:20:33;;;;;;;;;;;;;;;19.78;65.19;101150.59;1706866;83;25906;-54
2022/06/26 05:23:00;;;;;;;;;;;;;;;19.88;64.94;101154.46;1696177;83;25442;-55
2022/06/26 05:25:27;;;;;;;;;;;;;;;19.99;64.70;101159.45;1692153;83;25799;-53
2022/06/26 05:27:56;;;;;;;;;;;;;;;20.09;64.44;101162.72;1681110;83;25835;-54
2022/06/26 05:30:22;;;;;;;;;;;;;;;20.12;62.71;101162.88;1685990;84;28562;-55
2022/06/26 05:32:49;;;;;;;;;;;;;;;20.14;62.91;101167.11;1698430;83;26404;-54
2022/06/26 05:35:17;;;;;;;;;;;;;;;20.21;62.81;101162.24;1684598;83;25811;-55
2022/06/26 05:37:44;;;;;;;;;;;;;;;20.29;62.77;101164.87;1687421;83;26685;-55
2022/06/26 05:40:12;;;;;;;;;;;;;;;20.42;63.00;101166.91;1700924;82;25912;-54
2022/06/26 05:42:41;;;;;;;;;;;;;;;20.55;62.99;101172.55;1724346;82;29334;-53
2022/06/26 05:45:11;;;;;;;;;;;;;;;20.75;62.93;101174.69;1723541;82;25820;-55
2022/06/26 05:47:38;;;;;;;;;;;;;;;20.94;62.95;101175.93;1714517;81;25535;-54
2022/06/26 05:50:07;;;;;;;;;;;;;;;21.15;62.56;101175.07;1696934;82;28011;-54
2022/06/26 05:52:51;;;;;;;;;;;;;;;21.35;62.23;101171.12;1691112;82;25786;-54
2022/06/26 05:55:20;;;;;;;;;;;;;;;21.55;61.94;101177.28;1678519;81;27858;-55
2022/06/26 05:57:48;;;;;;;;;;;;;;;21.72;61.95;101192.39;1707516;82;25755;-54
2022/06/26 06:00:29;;;;;;;;;;;;;;;21.83;61.77;101188.23;1695410;82;25804;-55
2022/06/26 06:02:56;;;;;;;;;;;;;;;21.93;61.39;101192.00;1706476;81;25836;-54
2022/06/26 06:05:22;;;;;;;;;;;;;;;22.02;61.38;101189.42;1716655;81;25758;-54
2022/06/26 06:07:49;;;;;;;;;;;;;;;22.09;60.84;101188.10;1723392;81;28382;-54
2022/06/26 06:10:18;;;;;;;;;;;;;;;22.18;60.57;101188.76;1733145;81;25723;-54
2022/06/26 06:12:45;;;;;;;;;;;;;;;22.25;60.31;101192.91;1735548;81;25891;-54
2022/06/26 06:15:12;;;;;;;;;;;;;;;22.26;59.25;101191.86;1717621;81;25792;-55
2022/06/26 06:17:40;;;;;;;;;;;;;;;22.29;59.75;101192.30;1732567;81;25964;-54
2022/06/26 06:20:14;;;;;;;;;;;;;;;22.36;59.26;101200.02;1726998;81;27529;-54
2022/06/26 06:22:46;;;;;;;;;;;;;;;22.42;59.43;101196.16;1727922;80;25812;-53
2022/06/26 06:25:13;;;;;;;;;;;;;;;22.54;59.47;101197.81;1728179;81;25732;-55
2022/06/26 06:27:40;;;;;;;;;;;;;;;22.61;59.05;101200.88;1723071;81;25877;-54
2022/06/26 06:30:10;;;;;;;;;;;;;;;22.68;58.82;101202.81;1735745;81;25732;-54
2022/06/26 06:32:37;;;;;;;;;;;;;;;22.77;58.78;101198.30;1729718;81;27521;-55
2022/06/26 06:35:06;;;;;;;;;;;;;;;22.94;58.63;101206.99;1736967;80;25734;-53
2022/06/26 06:37:35;;;;;;;;;;;;;;;23.10;58.27;101204.90;1732637;81;25449;-54
2022/06/26 06:40:03;;;;;;;;;;;;;;;23.22;57.87;101207.89;1722141;81;26461;-53
2022/06/26 06:42:32;;;;;;;;;;;;;;;23.28;57.44;101204.30;1681804;82;26291;-54
2022/06/26 06:45:00;;;;;;;;;;;;;;;23.39;57.48;101211.91;1691914;82;27731;-54
2022/06/26 06:47:45;;;;;;;;;;;;;;;23.41;56.69;101202.95;1710373;82;25884;-55
2022/06/26 06:50:14;;;;;;;;;;;;;;;23.39;56.31;101205.59;1686529;82;25648;-54
2022/06/26 06:52:40;;;;;;;;;;;;;;;23.36;56.00;101205.46;1700469;82;25818;-55
2022/06/26 06:55:09;;;;;;;;;;;;;;;23.35;56.47;101207.92;1732168;81;25671;-53
2022/06/26 06:57:36;;;;;;;;;;;;;;;23.32;56.29;101198.72;1722566;81;28189;-54
2022/06/26 07:00:05;;;;;;;;;;;;;;;23.28;56.44;101198.81;1718951;81;25778;-53
2022/06/26 07:02:31;;;;;;;;;;;;;;;23.28;56.92;101197.44;1714388;82;25935;-54
2022/06/26 07:05:00;;;;;;;;;;;;;;;23.29;56.65;101205.48;1716499;82;25883;-55
2022/06/26 07:07:28;;;;;;;;;;;;;;;23.33;56.68;101198.18;1710115;82;25720;-55
2022/06/26 07:09:54;;;;;;;;;;;;;;;23.37;56.74;101190.69;1713197;81;27530;-55
2022/06/26 07:12:21;;;;;;;;;;;;;;;23.36;56.11;101184.04;1713399;83;25800;-55
2022/06/26 07:14:47;;;;;;;;;;;;;;;23.42;56.14;101188.16;1717278;82;25772;-55
2022/06/26 07:17:14;;;;;;;;;;;;;;;23.55;55.19;101187.31;1713939;82;25852;-55
2022/06/26 07:19:42;;;;;;;;;;;;;;;23.65;54.77;101186.03;1719449;82;26223;-55
2022/06/26 07:22:09;;;;;;;;;;;;;;;23.65;54.67;101189.61;1719307;82;27457;-54
2022/06/26 07:24:38;;;;;;;;;;;;;;;23.73;54.89;101181.14;1713196;81;25780;-53
2022/06/26 07:27:10;;;;;;;;;;;;;;;23.81;54.69;101173.73;1676709;83;26408;-54
2022/06/26 07:29:38;;;;;;;;;;;;;;;23.88;54.33;101183.66;1714416;82;25829;-55
2022/06/26 07:32:06;;;;;;;;;;;;;;;23.94;53.99;101175.12;1716002;81;25732;-55
2022/06/26 07:34:33;;;;;;;;;;;;;;;24.05;54.16;101180.47;1713504;82;27533;-54
2022/06/26 07:37:00;;;;;;;;;;;;;;;24.17;54.04;101173.25;1715660;82;25979;-55
2022/06/26 07:39:27;;;;;;;;;;;;;;;24.36;53.94;101175.59;1708296;83;25717;-55
2022/06/26 07:41:54;;;;;;;;;;;;;;;24.54;52.07;101176.26;1734008;81;25734;-57
2022/06/26 07:44:22;;;;;;;;;;;;;;;24.73;51.77;101175.55;1741318;81;25857;-52
2022/06/26 07:46:49;;;;;;;;;;;;;;;24.90;50.71;101170.37;1718699;82;27545;-55
2022/06/26 07:49:17;;;;;;;;;;;;;;;25.09;48.95;101171.27;1726553;82;25811;-55
2022/06/26 07:51:45;;;;;;;;;;;;;;;25.21;49.07;101168.64;1733499;81;25956;-55
2022/06/26 07:54:12;;;;;;;;;;;;;;;25.34;49.20;101164.41;1722059;81;26592;-54
2022/06/26 07:56:38;;;;;;;;;;;;;;;25.40;49.23;101160.77;1728314;81;25760;-55
2022/06/26 07:59:06;;;;;;;;;;;;;;;25.50;48.73;101158.90;1737820;81;27716;-56
2022/06/26 08:01:32;;;;;;;;;;;;;;;25.54;49.07;101161.49;1724975;82;25904;-55
2022/06/26 08:03:59;;;;;;;;;;;;;;;25.65;48.15;101158.52;1719241;81;25788;-55
2022/06/26 08:06:26;;;;;;;;;;;;;;;25.75;48.44;101160.22;1722851;81;25878;-54
2022/06/26 08:08:52;;;;;;;;;;;;;;;25.93;48.27;101161.30;1698899;82;26325;-55
2022/06/26 08:11:19;;;;;;;;;;;;;;;26.16;45.32;101164.77;1691981;83;27500;-54
2022/06/26 08:13:46;;;;;;;;;;;;;;;26.23;44.63;101162.77;1680894;83;26035;-54
2022/06/26 08:16:13;;;;;;;;;;;;;;;26.25;45.63;101160.62;1689762;83;26418;-54
2022/06/26 08:18:40;;;;;;;;;;;;;;;26.36;44.91;101149.33;1694960;83;25802;-53
2022/06/26 08:23:36;;;;;;;;;;;;;;;26.63;43.70;101153.09;1685253;83;27510;-54
2022/06/26 08:26:02;;;;;;;;;;;;;;;26.65;44.84;101157.02;1693471;82;25935;-53
2022/06/26 08:28:29;;;;;;;;;;;;;;;26.73;44.55;101155.31;1693022;83;25853;-55
2022/06/26 08:30:56;;;;;;;;;;;;;;;26.72;45.10;101161.91;1691511;83;25750;-55
2022/06/26 08:33:22;;;;;;;;;;;;;;;26.69;43.81;101156.33;1687664;83;25711;-55
2022/06/26 08:35:48;;;;;;;;;;;;;;;26.62;44.65;101153.34;1694386;83;27518;-55
2022/06/26 08:38:15;;;;;;;;;;;;;;;26.68;44.62;101147.73;1690470;83;25916;-56
2022/06/26 08:40:43;;;;;;;;;;;;;;;26.80;44.89;101145.59;1691567;83;25927;-55
2022/06/26 08:43:10;;;;;;;;;;;;;;;26.87;42.86;101140.25;1692957;82;27981;-54
2022/06/26 08:45:37;;;;;;;;;;;;;;;26.87;42.75;101144.94;1701539;81;25796;-55
2022/06/26 08:48:06;;;;;;;;;;;;;;;26.94;42.99;101146.23;1702241;81;27478;-55
2022/06/26 08:50:33;;;;;;;;;;;;;;;27.10;41.99;101144.15;1723235;80;25706;-55
2022/06/26 08:53:01;;;;;;;;;;;;;;;27.20;40.25;101142.72;1721715;82;25866;-55
2022/06/26 08:55:28;;;;;;;;;;;;;;;27.21;40.68;101143.03;1728628;81;25803;-55
2022/06/26 08:57:54;;;;;;;;;;;;;;;27.21;41.40;101138.88;1729978;81;25767;-55
2022/06/26 09:00:21;;;;;;;;;;;;;;;27.31;41.23;101152.39;1733283;80;28256;-54
2022/06/26 09:02:48;;;;;;;;;;;;;;;27.38;40.08;101140.38;1730173;81;25864;-55
2022/06/26 09:05:14;;;;;;;;;;;;;;;27.34;39.78;101152.45;1729635;80;25763;-55
2022/06/26 09:07:48;;;;;;;;;;;;;;;27.28;38.49;101155.63;1730636;81;25799;-56
2022/06/26 09:10:19;;;;;;;;;;;;;;;27.29;39.26;101145.43;1740938;81;25803;-54
2022/06/26 09:12:53;;;;;;;;;;;;;;;27.44;38.65;101156.02;1729647;81;28136;-53
2022/06/26 09:15:21;;;;;;;;;;;;;;;27.60;39.05;101153.08;1722690;81;26652;-53
2022/06/26 09:18:00;;;;;;;;;;;;;;;27.76;38.50;101159.24;1727312;81;25808;-55
2022/06/26 09:20:26;;;;;;;;;;;;;;;27.90;37.95;101156.23;1725463;81;26680;-56
2022/06/26 09:22:55;;;;;;;;;;;;;;;28.04;38.51;101162.34;1712166;82;25723;-55
2022/06/26 09:25:25;;;;;;;;;;;;;;;28.21;38.12;101162.42;1730126;81;27563;-55
2022/06/26 09:27:51;;;;;;;;;;;;;;;28.43;37.82;101166.74;1721546;81;25697;-56
2022/06/26 09:30:18;;;;;;;;;;;;;;;28.58;37.89;101168.45;1729190;80;25796;-56
2022/06/26 09:32:45;;;;;;;;;;;;;;;28.75;37.31;101174.59;1731343;81;25820;-55
2022/06/26 09:35:15;;;;;;;;;;;;;;;28.80;37.34;101170.52;1731119;81;25865;-56
2022/06/26 09:37:43;;;;;;;;;;;;;;;28.73;37.47;101181.73;1723388;81;27560;-56
2022/06/26 09:40:13;;;;;;;;;;;;;;;28.68;37.89;101186.34;1717122;82;25743;-56
2022/06/26 09:42:40;;;;;;;;;;;;;;;28.55;38.32;101180.56;1715633;81;25825;-55
2022/06/26 09:45:09;;;;;;;;;;;;;;;28.41;38.44;101184.16;1715769;81;25852;-56
2022/06/26 09:47:36;;;;;;;;;;;;;;;28.21;38.85;101188.18;1722149;81;27335;-56
2022/06/26 09:50:05;;;;;;;;;;;;;;;28.14;38.93;101188.01;1722599;81;27510;-56
2022/06/26 09:52:32;;;;;;;;;;;;;;;28.01;39.06;101189.94;1696644;82;25784;-56
2022/06/26 09:55:00;;;;;;;;;;;;;;;27.83;38.93;101191.47;1723830;80;25548;-55
2022/06/26 09:57:28;;;;;;;;;;;;;;;27.62;38.62;101190.44;1727642;81;25835;-55
2022/06/26 09:59:56;;;;;;;;;;;;;;;27.38;38.83;101195.09;1724684;81;25964;-54
2022/06/26 10:08:06;;;;;;;;;;;;;;;27.24;39.68;101194.48;1718418;82;25864;-55
2022/06/26 10:10:35;;;;;;;;;;;;;;;27.05;38.83;101189.56;1717299;81;25791;-55
2022/06/26 10:13:04;;;;;;;;;;;;;;;26.89;39.38;101195.23;1713495;82;25696;-53
2022/06/26 10:15:43;;;;;;;;;;;;;;;26.88;39.68;101196.31;1717977;81;28244;-55
2022/06/26 10:18:14;;;;;;;;;;;;;;;26.83;39.67;101198.40;1722537;80;25834;-54
2022/06/26 10:20:42;;;;;;;;;;;;;;;26.81;39.58;101190.88;1719852;80;25770;-54
2022/06/26 10:23:09;;;;;;;;;;;;;;;26.83;39.28;101198.92;1721712;81;25819;-55
2022/06/26 10:25:35;;;;;;;;;;;;;;;26.74;39.68;101194.25;1731002;81;25913;-56
2022/06/26 10:28:02;;;;;;;;;;;;;;;26.69;39.69;101197.72;1727515;81;27586;-54
2022/06/26 10:30:31;;;;;;;;;;;;;;;26.68;40.25;101196.55;1720600;81;25468;-54
2022/06/26 10:33:14;;;;;;;;;;;;;;;26.73;39.50;101198.09;1721827;81;25725;-55
2022/06/26 10:35:44;;;;;;;;;;;;;;;26.78;39.75;101201.55;1715789;81;26753;-55
2022/06/26 10:38:24;;;;;;;;;;;;;;;26.88;39.53;101201.84;1721488;81;26107;-55
2022/06/26 10:44:03;;;;;;;;;;;;;;;27.43;39.42;101204.91;1722872;81;25944;-55
2022/06/26 10:46:47;;;;;;;;;;;;;;;27.87;39.59;101200.42;1715881;81;25708;-56
2022/06/26 10:49:14;;;;;;;;;;;;;;;28.09;38.80;101200.66;1725749;81;25948;-55
2022/06/26 10:51:44;;;;;;;;;;;;;;;28.04;38.59;101210.73;1721611;82;26074;-54
2022/06/26 10:54:22;;;;;;;;;;;;;;;27.91;38.96;101204.92;1732267;81;28271;-57
2022/06/26 10:56:52;;;;;;;;;;;;;;;27.79;40.63;101209.08;1726657;81;25820;-56
2022/06/26 10:59:21;;;;;;;;;;;;;;;27.57;42.58;101211.05;1729347;81;25915;-54
2022/06/26 11:01:48;;;;;;;;;;;;;;;27.34;44.33;101207.14;1723563;82;25939;-56
2022/06/26 11:04:15;;;;;;;;;;;;;;;27.00;46.42;101202.69;1733014;82;25762;-55
2022/06/26 11:06:41;;;;;;;;;;;;;;;26.62;46.19;101201.62;1740542;81;27482;-55
2022/06/26 11:09:09;;;;;;;;;;;;;;;26.37;46.83;101197.08;1747256;80;25898;-56
2022/06/26 11:11:36;;;;;;;;;;;;;;;26.26;48.61;101197.33;1735681;81;26205;-56
2022/06/26 11:14:09;;;;;;;;;;;;;;;25.97;48.26;101203.02;1741300;80;25814;-56
2022/06/26 11:16:44;;;;;;;;;;;;;;;25.74;48.04;101196.27;1744599;82;25759;-55
2022/06/26 11:19:31;;;;;;;;;;;;;;;25.61;48.91;101189.81;1744434;81;46422;-55
2022/06/26 11:22:09;;;;;;;;;;;;;;;25.54;49.88;101189.03;1743362;81;25963;-53
2022/06/26 11:24:38;;;;;;;;;;;;;;;25.55;50.26;101187.14;1746625;80;25821;-54
2022/06/26 11:27:05;;;;;;;;;;;;;;;25.54;50.52;101186.83;1744164;81;25866;-56
2022/06/26 11:29:32;;;;;;;;;;;;;;;25.54;50.68;101181.32;1741802;81;25696;-56
2022/06/26 11:31:59;;;;;;;;;;;;;;;25.59;51.07;101186.98;1730535;82;27500;-56
2022/06/26 11:34:25;;;;;;;;;;;;;;;25.60;51.02;101180.41;1744570;81;25812;-54
2022/06/26 11:36:58;;;;;;;;;;;;;;;25.68;50.50;101186.17;1746543;80;25693;-56
2022/06/26 11:39:27;;;;;;;;;;;;;;;25.77;50.33;101180.67;1744478;80;25966;-55
2022/06/26 11:41:53;;;;;;;;;;;;;;;25.97;50.16;101185.96;1689677;83;25826;-56
2022/06/26 11:44:20;;;;;;;;;;;;;;;26.15;50.13;101181.00;1692845;83;27573;-55
2022/06/26 11:46:47;;;;;;;;;;;;;;;26.38;49.51;101180.84;1699357;82;25718;-55
2022/06/26 11:49:14;;;;;;;;;;;;;;;26.65;48.78;101176.34;1694853;83;25900;-56
2022/06/26 11:51:41;;;;;;;;;;;;;;;27.01;48.34;101171.80;1690004;83;25793;-55
2022/06/26 11:54:09;;;;;;;;;;;;;;;27.28;47.09;101174.95;1694470;83;26368;-56
2022/06/26 11:56:37;;;;;;;;;;;;;;;27.55;45.47;101169.55;1687179;83;27546;-55
2022/06/26 11:59:03;;;;;;;;;;;;;;;27.82;44.08;101167.67;1684907;82;25898;-55
2022/06/26 12:01:33;;;;;;;;;;;;;;;28.33;43.57;101165.18;1692501;81;25727;-55
2022/06/26 12:04:00;;;;;;;;;;;;;;;29.47;42.26;101160.59;1699164;83;25836;-56
2022/06/26 12:06:35;;;;;;;;;;;;;;;30.98;40.20;101152.98;1687861;84;25904;-55
2022/06/26 12:09:17;;;;;;;;;;;;;;;32.48;38.29;101154.45;1689580;82;27473;-55
2022/06/26 12:11:46;;;;;;;;;;;;;;;33.97;36.13;101150.78;1688127;83;25764;-55
2022/06/26 12:14:14;;;;;;;;;;;;;;;35.43;32.48;101147.28;1693351;83;25499;-56
2022/06/26 12:16:49;;;;;;;;;;;;;;;36.05;28.40;101139.03;1690874;83;25881;-55
2022/06/26 12:19:16;;;;;;;;;;;;;;;36.69;27.55;101137.30;1696787;81;25734;-56
2022/06/26 12:21:48;;;;;;;;;;;;;;;36.77;27.21;101138.55;1695570;82;27488;-56
2022/06/26 12:24:16;;;;;;;;;;;;;;;37.00;25.36;101139.59;1703537;83;26538;-56
2022/06/26 12:26:43;;;;;;;;;;;;;;;36.99;25.72;101141.32;1700637;83;25852;-56
2022/06/26 12:29:14;;;;;;;;;;;;;;;36.44;25.06;101137.11;1690557;83;25783;-56
2022/06/26 12:31:42;;;;;;;;;;;;;;;36.06;26.00;101144.05;1691910;83;25704;-55
2022/06/26 12:34:09;;;;;;;;;;;;;;;36.07;26.31;101136.77;1699234;83;27427;-55
2022/06/26 12:36:38;;;;;;;;;;;;;;;35.75;26.96;101134.05;1693897;83;25737;-56
2022/06/26 12:39:07;;;;;;;;;;;;;;;35.92;27.01;101136.95;1702431;83;25702;-55
2022/06/26 12:41:34;;;;;;;;;;;;;;;35.44;26.93;101130.77;1738804;81;25986;-56
2022/06/26 12:44:02;;;;;;;;;;;;;;;35.32;26.43;101129.20;1747246;80;25669;-56
2022/06/26 12:46:31;;;;;;;;;;;;;;;34.85;27.31;101141.32;1727612;81;27489;-56
2022/06/26 12:48:59;;;;;;;;;;;;;;;34.14;28.46;101140.09;1744579;80;25892;-56
2022/06/26 12:51:27;;;;;;;;;;;;;;;33.57;29.26;101151.15;1746260;80;25435;-56
2022/06/26 12:53:54;;;;;;;;;;;;;;;32.78;29.75;101160.09;1745557;81;25834;-56
2022/06/26 12:56:21;;;;;;;;;;;;;;;32.16;29.63;101155.70;1745864;81;25996;-54
2022/06/26 12:58:47;;;;;;;;;;;;;;;31.62;30.21;101159.60;1737785;81;27486;-55